createdAt,value
2018-11-05T00:01:40.358Z,15.10
2018-11-05T00:04:08.789Z,16.97
2018-11-05T00:06:37.190Z,15.80
2018-11-05T00:09:08.465Z,14.30
2018-11-05T00:11:37.014Z,17.17
2018-11-05T00:14:05.632Z,16.00
2018-11-05T00:16:34.027Z,16.63
2018-11-05T00:19:02.431Z,14.20
2018-11-05T00:21:30.906Z,15.60
2018-11-05T00:23:59.298Z,15.30
2018-11-05T00:26:27.897Z,15.00
2018-11-05T00:28:56.311Z,16.20
2018-11-05T00:31:24.929Z,16.17
2018-11-05T00:33:53.358Z,16.00
2018-11-05T00:36:21.769Z,16.87
2018-11-05T00:38:50.210Z,16.10
2018-11-05T00:41:18.607Z,14.93
2018-11-05T00:43:46.973Z,16.10
2018-11-05T00:46:15.465Z,15.50
2018-11-05T00:48:43.982Z,16.47
2018-11-05T00:51:12.478Z,15.93
2018-11-05T00:53:40.923Z,15.17
2018-11-05T00:56:09.369Z,16.47
2018-11-05T00:58:37.835Z,16.03
2018-11-05T01:01:06.732Z,15.40
2018-11-05T01:03:35.258Z,16.63
2018-11-05T01:06:03.655Z,15.60
2018-11-05T01:08:32.246Z,16.77
2018-11-05T01:11:00.827Z,15.43
2018-11-05T01:13:29.223Z,15.93
2018-11-05T01:15:57.629Z,15.40
2018-11-05T01:18:26.148Z,15.50
2018-11-05T01:20:54.726Z,15.47
2018-11-05T01:23:23.242Z,14.43
2018-11-05T01:25:51.702Z,14.37
2018-11-05T01:28:20.110Z,15.00
2018-11-05T01:30:48.590Z,14.73
2018-11-05T01:33:17.058Z,15.60
2018-11-05T01:35:45.451Z,15.10
2018-11-05T01:38:13.842Z,14.43
2018-11-05T01:40:42.360Z,15.67
2018-11-05T01:43:10.829Z,14.50
2018-11-05T01:45:39.201Z,15.03
2018-11-05T01:48:07.745Z,14.20
2018-11-05T01:50:36.209Z,14.20
2018-11-05T01:53:04.892Z,13.60
2018-11-05T01:55:33.415Z,14.07
2018-11-05T01:58:01.854Z,15.90
2018-11-05T02:00:30.375Z,14.77
2018-11-05T02:02:58.761Z,16.10
2018-11-05T02:05:27.267Z,14.10
2018-11-05T02:07:55.783Z,15.17
2018-11-05T02:10:24.249Z,15.20
2018-11-05T02:12:52.594Z,13.87
2018-11-05T02:15:20.966Z,13.80
2018-11-05T02:17:49.363Z,14.93
2018-11-05T02:20:17.995Z,13.27
2018-11-05T02:22:46.561Z,14.50
2018-11-05T02:25:15.271Z,13.37
2018-11-05T02:27:43.836Z,14.90
2018-11-05T02:30:15.697Z,14.67
2018-11-05T02:32:44.474Z,13.87
2018-11-05T02:35:13.984Z,13.57
2018-11-05T02:37:43.399Z,14.83
2018-11-05T02:40:20.538Z,14.30
2018-11-05T02:42:49.434Z,14.10
2018-11-05T02:45:18.633Z,13.90
2018-11-05T02:47:47.149Z,13.97
2018-11-05T02:50:16.045Z,13.93
2018-11-05T02:52:45.418Z,14.33
2018-11-05T02:55:13.961Z,14.80
2018-11-05T02:57:42.375Z,14.80
2018-11-05T03:00:14.758Z,15.53
2018-11-05T03:02:43.440Z,14.90
2018-11-05T03:05:13.637Z,15.30
2018-11-05T03:07:42.962Z,16.20
2018-11-05T03:10:12.032Z,12.97
2018-11-05T03:12:41.251Z,14.93
2018-11-05T03:15:11.565Z,15.47
2018-11-05T03:17:40.166Z,14.90
2018-11-05T03:20:10.090Z,15.27
2018-11-05T03:22:38.790Z,15.63
2018-11-05T03:25:07.451Z,14.60
2018-11-05T03:27:35.978Z,14.33
2018-11-05T03:30:04.950Z,14.00
2018-11-05T03:32:33.423Z,15.40
2018-11-05T03:35:01.806Z,13.60
2018-11-05T03:37:30.460Z,14.90
2018-11-05T03:39:58.911Z,15.30
2018-11-05T03:42:27.274Z,15.80
2018-11-05T03:44:55.674Z,13.63
2018-11-05T03:47:24.063Z,14.97
2018-11-05T03:49:52.555Z,14.30
2018-11-05T03:52:21.081Z,14.40
2018-11-05T03:54:49.575Z,14.90
2018-11-05T03:57:18.027Z,14.80
2018-11-05T03:59:46.430Z,12.70
2018-11-05T04:02:14.789Z,14.67
2018-11-05T04:04:43.767Z,16.37
2018-11-05T04:07:12.147Z,15.20
2018-11-05T04:09:40.538Z,15.03
2018-11-05T04:12:09.211Z,15.43
2018-11-05T04:14:37.618Z,15.50
2018-11-05T04:17:06.546Z,15.87
2018-11-05T04:19:34.981Z,16.40
2018-11-05T04:22:03.496Z,15.20
2018-11-05T04:24:31.938Z,14.97
2018-11-05T04:27:00.325Z,14.80
2018-11-05T04:29:28.772Z,16.40
2018-11-05T04:31:57.243Z,14.70
2018-11-05T04:34:25.702Z,14.50
2018-11-05T04:36:54.095Z,16.10
2018-11-05T04:39:22.539Z,15.97
2018-11-05T04:41:50.969Z,15.30
2018-11-05T04:44:19.546Z,15.23
2018-11-05T04:46:48.011Z,15.57
2018-11-05T04:49:16.558Z,15.50
2018-11-05T04:51:45.191Z,14.70
2018-11-05T04:54:13.594Z,16.07
2018-11-05T04:56:42.009Z,15.77
2018-11-05T04:59:10.396Z,17.20
2018-11-05T05:01:38.804Z,17.23
2018-11-05T05:04:07.186Z,16.60
2018-11-05T05:06:35.594Z,17.87
2018-11-05T05:09:05.952Z,18.43
2018-11-05T05:11:34.321Z,19.90
2018-11-05T05:14:02.892Z,19.63
2018-11-05T05:16:31.300Z,19.70
2018-11-05T05:18:59.791Z,19.40
2018-11-05T05:21:28.214Z,18.63
2018-11-05T05:23:56.663Z,17.97
2018-11-05T05:26:25.219Z,19.57
2018-11-05T05:28:53.625Z,18.20
2018-11-05T05:31:22.022Z,20.00
2018-11-05T05:33:50.459Z,18.67
2018-11-05T05:36:18.870Z,18.90
2018-11-05T05:38:47.423Z,18.43
2018-11-05T05:41:15.988Z,15.43
2018-11-05T05:43:44.481Z,16.57
2018-11-05T05:46:12.926Z,14.23
2018-11-05T05:48:41.408Z,15.57
2018-11-05T05:51:10.290Z,15.60
2018-11-05T05:53:38.730Z,12.80
2018-11-05T05:56:07.154Z,13.20
2018-11-05T05:58:35.513Z,12.60
2018-11-05T06:01:04.151Z,13.07
2018-11-05T06:03:32.687Z,14.60
2018-11-05T06:06:01.259Z,13.77
2018-11-05T06:08:29.650Z,12.30
2018-11-05T06:10:58.222Z,11.93
2018-11-05T06:13:26.632Z,13.77
2018-11-05T06:15:55.315Z,13.10
2018-11-05T06:18:23.669Z,13.20
2018-11-05T06:20:52.161Z,12.07
2018-11-05T06:23:20.682Z,13.70
2018-11-05T06:25:49.213Z,13.83
2018-11-05T06:28:17.579Z,15.50
2018-11-05T06:30:46.022Z,14.13
2018-11-05T06:33:14.570Z,15.47
2018-11-05T06:35:43.086Z,15.40
2018-11-05T06:38:11.551Z,15.20
2018-11-05T06:40:39.987Z,15.03
2018-11-05T06:43:08.470Z,13.87
2018-11-05T06:45:36.845Z,13.80
2018-11-05T06:48:05.384Z,13.13
2018-11-05T06:50:33.937Z,14.77
2018-11-05T06:53:02.531Z,14.60
2018-11-05T06:55:30.791Z,15.73
2018-11-05T06:57:59.270Z,15.03
2018-11-05T07:00:27.694Z,16.83
2018-11-05T07:02:56.074Z,17.53
2018-11-05T07:05:24.573Z,19.83
2018-11-05T07:07:53.274Z,18.33
2018-11-05T07:10:21.718Z,16.63
2018-11-05T07:12:50.281Z,14.67
2018-11-05T07:15:19.389Z,13.10
2018-11-05T07:17:48.803Z,13.60
2018-11-05T07:20:18.435Z,13.00
2018-11-05T07:22:47.682Z,15.93
2018-11-05T07:25:16.371Z,15.27
2018-11-05T07:27:45.119Z,13.87
2018-11-05T07:30:17.500Z,13.93
2018-11-05T07:32:46.609Z,12.27
2018-11-05T07:35:15.827Z,11.93
2018-11-05T07:37:45.246Z,13.37
2018-11-05T07:40:15.048Z,11.93
2018-11-05T07:42:43.511Z,12.90
2018-11-05T07:45:15.630Z,15.40
2018-11-05T07:47:44.853Z,15.10
2018-11-05T07:50:14.525Z,13.77
2018-11-05T07:52:42.925Z,12.70
2018-11-05T07:55:12.859Z,13.93
2018-11-05T07:57:42.546Z,12.60
2018-11-05T08:00:20.319Z,14.47
2018-11-05T08:02:50.059Z,13.17
2018-11-05T08:05:19.527Z,13.43
2018-11-05T08:07:48.366Z,13.20
2018-11-05T08:10:16.752Z,15.20
2018-11-05T08:12:45.267Z,16.83
2018-11-05T08:15:16.915Z,14.93
2018-11-05T08:17:46.378Z,15.50
2018-11-05T08:20:14.861Z,15.47
2018-11-05T08:22:43.238Z,17.60
2018-11-05T08:25:12.419Z,17.63
2018-11-05T08:27:40.907Z,16.73
2018-11-05T08:30:11.907Z,15.60
2018-11-05T08:32:40.273Z,16.30
2018-11-05T08:35:09.764Z,15.20
2018-11-05T08:37:38.262Z,14.60
2018-11-05T08:40:10.715Z,14.73
2018-11-05T08:42:39.386Z,13.70
2018-11-05T08:45:07.960Z,14.03
2018-11-05T08:47:36.369Z,14.03
2018-11-05T08:50:05.044Z,13.77
2018-11-05T08:52:33.574Z,13.77
2018-11-05T08:55:02.058Z,13.00
2018-11-05T08:57:30.475Z,13.90
2018-11-05T08:59:58.895Z,11.53
2018-11-05T09:02:27.436Z,11.90
2018-11-05T09:04:55.902Z,12.23
2018-11-05T09:07:24.283Z,12.63
2018-11-05T09:09:52.857Z,11.87
2018-11-05T09:12:21.149Z,11.07
2018-11-05T09:14:49.536Z,11.90
2018-11-05T09:17:17.942Z,12.17
2018-11-05T09:19:46.319Z,11.30
2018-11-05T09:22:14.885Z,11.10
2018-11-05T09:24:43.451Z,10.60
2018-11-05T09:27:11.863Z,10.97
2018-11-05T09:29:40.303Z,10.93
2018-11-05T09:32:08.758Z,12.70
2018-11-05T09:34:37.318Z,12.50
2018-11-05T09:37:05.728Z,12.40
2018-11-05T09:39:34.235Z,11.63
2018-11-05T09:42:02.654Z,11.73
2018-11-05T09:44:31.105Z,11.07
2018-11-05T09:46:59.577Z,10.67
2018-11-05T09:49:27.952Z,11.83
2018-11-05T09:51:56.374Z,10.07
2018-11-05T09:54:24.790Z,11.23
2018-11-05T09:56:53.252Z,11.70
2018-11-05T09:59:21.691Z,11.57
2018-11-05T10:01:50.145Z,13.10
2018-11-05T10:04:18.656Z,12.43
2018-11-05T10:06:46.954Z,10.80
2018-11-05T10:09:15.336Z,11.00
2018-11-05T10:11:43.719Z,9.27
2018-11-05T10:14:12.143Z,10.63
2018-11-05T10:16:40.713Z,9.57
2018-11-05T10:19:09.109Z,9.20
2018-11-05T10:21:37.579Z,10.27
2018-11-05T10:24:06.212Z,8.87
2018-11-05T10:26:34.642Z,10.00
2018-11-05T10:29:03.106Z,10.23
2018-11-05T10:31:31.643Z,9.90
2018-11-05T10:34:00.025Z,10.53
2018-11-05T10:36:28.503Z,10.27
2018-11-05T10:38:56.890Z,9.90
2018-11-05T10:41:25.342Z,10.63
2018-11-05T10:43:54.004Z,10.47
2018-11-05T10:46:22.718Z,11.17
2018-11-05T10:48:51.057Z,10.83
2018-11-05T10:51:19.628Z,9.70
2018-11-05T10:53:47.961Z,9.93
2018-11-05T10:56:16.407Z,10.60
2018-11-05T10:58:44.922Z,10.60
2018-11-05T11:01:15.658Z,11.60
2018-11-05T11:03:49.481Z,12.20
2018-11-05T11:06:17.878Z,11.57
2018-11-05T11:08:46.319Z,10.70
2018-11-05T11:11:14.703Z,11.12
2018-11-05T11:13:43.344Z,10.72
2018-11-05T11:16:11.889Z,11.90
2018-11-05T11:18:40.427Z,10.50
2018-11-05T11:21:08.902Z,10.30
2018-11-05T11:23:37.414Z,13.13
2018-11-05T11:26:06.236Z,13.00
2018-11-05T11:28:34.715Z,12.68
2018-11-05T11:31:03.146Z,15.50
2018-11-05T11:33:31.707Z,13.32
2018-11-05T11:36:00.096Z,14.93
2018-11-05T11:38:28.675Z,13.38
2018-11-05T11:40:57.178Z,13.90
2018-11-05T11:43:25.715Z,13.15
2018-11-05T11:45:54.261Z,14.20
2018-11-05T11:48:22.791Z,14.75
2018-11-05T11:50:51.227Z,13.28
2018-11-05T11:53:19.835Z,13.00
2018-11-05T11:55:48.341Z,12.95
2018-11-05T11:58:16.797Z,12.05
2018-11-05T12:00:45.248Z,11.95
2018-11-05T12:03:13.730Z,11.33
2018-11-05T12:05:42.108Z,11.57
2018-11-05T12:08:10.489Z,10.80
2018-11-05T12:10:38.905Z,11.30
2018-11-05T12:13:07.429Z,10.95
2018-11-05T12:15:35.939Z,10.90
2018-11-05T12:18:04.398Z,10.82
2018-11-05T12:20:32.807Z,11.40
2018-11-05T12:23:01.190Z,10.10
2018-11-05T12:25:29.681Z,10.45
2018-11-05T12:27:58.111Z,10.28
2018-11-05T12:30:26.540Z,11.40
2018-11-05T12:32:55.111Z,11.18
2018-11-05T12:35:23.508Z,10.68
2018-11-05T12:37:52.907Z,10.20
2018-11-05T12:40:22.218Z,10.30
2018-11-05T12:42:51.277Z,10.83
2018-11-05T12:45:19.762Z,10.53
2018-11-05T12:47:48.240Z,10.32
2018-11-05T12:50:21.010Z,9.85
2018-11-05T12:52:50.437Z,10.00
2018-11-05T12:55:19.041Z,9.93
2018-11-05T12:57:47.816Z,9.25
2018-11-05T13:00:18.426Z,10.13
2018-11-05T13:02:52.734Z,9.35
2018-11-05T13:05:21.529Z,10.40
2018-11-05T13:07:50.018Z,10.45
2018-11-05T13:10:18.554Z,10.25
2018-11-05T13:12:47.032Z,9.88
2018-11-05T13:15:15.766Z,10.65
2018-11-05T13:17:44.178Z,10.15
2018-11-05T13:20:19.738Z,10.40
2018-11-05T13:22:48.570Z,10.82
2018-11-05T13:25:17.017Z,9.95
2018-11-05T13:27:46.887Z,10.55
2018-11-05T13:30:15.686Z,9.78
2018-11-05T13:32:44.457Z,10.10
2018-11-05T13:35:14.255Z,10.90
2018-11-05T13:37:43.177Z,10.00
2018-11-05T13:40:13.826Z,10.68
2018-11-05T13:42:42.474Z,9.93
2018-11-05T13:45:11.965Z,10.13
2018-11-05T13:47:41.267Z,10.50
2018-11-05T13:50:10.296Z,11.00
2018-11-05T13:52:38.825Z,10.18
2018-11-05T13:55:08.635Z,10.20
2018-11-05T13:57:37.231Z,10.80
2018-11-05T14:00:07.762Z,11.35
2018-11-05T14:02:36.183Z,10.35
2018-11-05T14:05:04.893Z,11.50
2018-11-05T14:07:34.014Z,11.35
2018-11-05T14:10:02.444Z,11.07
2018-11-05T14:12:30.946Z,11.15
2018-11-05T14:14:59.263Z,10.60
2018-11-05T14:17:27.767Z,9.65
2018-11-05T14:19:56.278Z,9.80
2018-11-05T14:22:24.914Z,9.55
2018-11-05T14:24:53.352Z,10.30
2018-11-05T14:27:21.941Z,11.78
2018-11-05T14:29:50.714Z,11.25
2018-11-05T14:32:18.891Z,11.45
2018-11-05T14:34:47.538Z,10.80
2018-11-05T14:37:16.116Z,10.70
2018-11-05T14:39:44.525Z,10.25
2018-11-05T14:42:12.946Z,10.60
2018-11-05T14:44:41.423Z,9.90
2018-11-05T14:47:10.006Z,10.40
2018-11-05T14:49:38.478Z,10.30
2018-11-05T14:52:06.929Z,10.03
2018-11-05T14:54:35.571Z,10.77
2018-11-05T14:57:03.990Z,10.38
2018-11-05T14:59:32.443Z,10.30
2018-11-05T15:02:06.339Z,9.43
2018-11-05T15:04:34.818Z,9.93
2018-11-05T15:07:03.537Z,9.83
2018-11-05T15:09:32.025Z,11.00
2018-11-05T15:12:00.608Z,9.80
2018-11-05T15:14:29.025Z,10.55
2018-11-05T15:16:57.606Z,10.70
2018-11-05T15:19:26.887Z,10.50
2018-11-05T15:21:54.979Z,9.87
2018-11-05T15:24:23.395Z,10.45
2018-11-05T15:26:52.070Z,11.83
2018-11-05T15:29:20.404Z,10.13
2018-11-05T15:31:48.969Z,10.50
2018-11-05T15:34:17.387Z,9.88
2018-11-05T15:36:45.874Z,10.63
2018-11-05T15:39:14.305Z,10.18
2018-11-05T15:41:42.707Z,11.30
2018-11-05T15:44:11.162Z,10.45
2018-11-05T15:46:39.905Z,11.70
2018-11-05T15:49:08.278Z,12.30
2018-11-05T15:51:37.048Z,12.80
2018-11-05T15:54:05.811Z,12.37
2018-11-05T15:56:34.312Z,12.90
2018-11-05T15:59:02.728Z,13.55
2018-11-05T16:01:31.331Z,13.50
2018-11-05T16:03:59.819Z,13.85
2018-11-05T16:06:28.296Z,13.13
2018-11-05T16:08:56.839Z,13.45
2018-11-05T16:11:25.388Z,14.60
2018-11-05T16:13:53.954Z,13.65
2018-11-05T16:16:22.436Z,14.78
2018-11-05T16:18:50.984Z,14.40
2018-11-05T16:21:19.415Z,14.13
2018-11-05T16:23:48.031Z,84.07
2018-11-05T16:26:16.480Z,49.08
2018-11-05T16:28:45.019Z,30.68
2018-11-05T16:31:13.536Z,20.55
2018-11-05T16:33:42.145Z,18.00
2018-11-05T16:36:10.840Z,16.80
2018-11-05T16:38:39.427Z,18.92
2018-11-05T16:41:08.000Z,16.25
2018-11-05T16:43:36.485Z,19.75
2018-11-05T16:46:05.950Z,22.02
2018-11-05T16:48:34.490Z,21.43
2018-11-05T16:51:02.980Z,19.70
2018-11-05T16:53:31.580Z,17.77
2018-11-05T16:56:00.111Z,20.60
2018-11-05T16:58:28.662Z,23.50
2018-11-05T17:00:57.279Z,23.60
2018-11-05T17:03:25.543Z,17.73
2018-11-05T17:05:54.178Z,23.32
2018-11-05T17:08:22.567Z,19.65
2018-11-05T17:10:51.086Z,19.50
2018-11-05T17:13:19.697Z,21.30
2018-11-05T17:15:48.074Z,24.92
2018-11-05T17:18:16.456Z,25.00
2018-11-05T17:20:44.941Z,20.52
2018-11-05T17:23:13.398Z,20.00
2018-11-05T17:25:42.090Z,19.55
2018-11-05T17:28:10.593Z,19.65
2018-11-05T17:30:39.030Z,19.42
2018-11-05T17:33:07.629Z,30.50
2018-11-05T17:35:36.010Z,32.55
2018-11-05T17:38:04.481Z,29.37
2018-11-05T17:40:33.216Z,27.40
2018-11-05T17:43:01.697Z,22.17
2018-11-05T17:45:30.200Z,35.90
2018-11-05T17:47:58.787Z,66.72
2018-11-05T17:50:27.272Z,35.63
2018-11-05T17:52:55.831Z,20.05
2018-11-05T17:55:24.284Z,21.68
2018-11-05T17:57:52.829Z,21.53
2018-11-05T18:00:22.670Z,21.75
2018-11-05T18:02:51.364Z,18.90
2018-11-05T18:05:20.124Z,25.35
2018-11-05T18:07:48.709Z,24.12
2018-11-05T18:10:17.585Z,24.02
2018-11-05T18:12:46.386Z,24.77
2018-11-05T18:15:14.811Z,23.57
2018-11-05T18:17:44.532Z,24.30
2018-11-05T18:20:13.992Z,24.13
2018-11-05T18:22:42.646Z,25.72
2018-11-05T18:25:12.788Z,26.07
2018-11-05T18:27:41.347Z,22.42
2018-11-05T18:30:10.505Z,22.10
2018-11-05T18:32:39.037Z,22.27
2018-11-05T18:35:09.259Z,23.45
2018-11-05T18:37:37.796Z,29.20
2018-11-05T18:40:10.122Z,25.30
2018-11-05T18:42:39.169Z,23.00
2018-11-05T18:45:08.393Z,22.35
2018-11-05T18:47:36.974Z,20.60
2018-11-05T18:50:07.900Z,19.25
2018-11-05T18:52:36.723Z,19.65
2018-11-05T18:55:06.916Z,20.95
2018-11-05T18:57:35.792Z,23.38
2018-11-05T19:00:05.662Z,23.32
2018-11-05T19:02:35.217Z,20.45
2018-11-05T19:05:04.134Z,21.80
2018-11-05T19:07:32.996Z,21.05
2018-11-05T19:10:01.670Z,20.57
2018-11-05T19:12:30.141Z,19.93
2018-11-05T19:14:58.801Z,21.35
2018-11-05T19:17:27.467Z,21.95
2018-11-05T19:19:56.269Z,22.02
2018-11-05T19:22:24.810Z,21.77
2018-11-05T19:24:53.329Z,21.87
2018-11-05T19:27:22.668Z,21.00
2018-11-05T19:29:51.211Z,20.15
2018-11-05T19:32:19.779Z,19.75
2018-11-05T19:34:51.195Z,19.30
2018-11-05T19:37:19.650Z,21.02
2018-11-05T19:39:48.116Z,25.05
2018-11-05T19:42:16.657Z,21.95
2018-11-05T19:44:45.069Z,21.50
2018-11-05T19:47:13.670Z,21.30
2018-11-05T19:49:42.092Z,23.77
2018-11-05T19:52:10.639Z,23.07
2018-11-05T19:54:39.233Z,22.05
2018-11-05T19:57:07.814Z,22.17
2018-11-05T19:59:36.330Z,21.20
2018-11-05T20:02:05.791Z,21.35
2018-11-05T20:04:34.334Z,21.40
2018-11-05T20:07:03.620Z,22.20
2018-11-05T20:09:32.130Z,23.10
2018-11-05T20:12:00.742Z,25.85
2018-11-05T20:14:29.238Z,24.63
2018-11-05T20:16:58.035Z,24.55
2018-11-05T20:19:26.701Z,23.15
2018-11-05T20:21:55.239Z,24.23
2018-11-05T20:24:23.796Z,25.95
2018-11-05T20:26:52.230Z,24.07
2018-11-05T20:29:20.756Z,33.23
2018-11-05T20:31:49.609Z,65.22
2018-11-05T20:34:18.221Z,64.15
2018-11-05T20:36:46.700Z,61.17
2018-11-05T20:39:15.301Z,25.32
2018-11-05T20:41:43.894Z,25.43
2018-11-05T20:44:12.375Z,24.80
2018-11-05T20:46:41.159Z,26.23
2018-11-05T20:49:09.516Z,26.95
2018-11-05T20:51:38.268Z,37.93
2018-11-05T20:54:06.955Z,47.60
2018-11-05T20:56:35.572Z,34.33
2018-11-05T20:59:04.166Z,31.57
2018-11-05T21:01:32.723Z,35.50
2018-11-05T21:04:01.197Z,39.25
2018-11-05T21:06:29.795Z,31.25
2018-11-05T21:08:58.383Z,32.25
2018-11-05T21:11:27.004Z,27.67
2018-11-05T21:13:55.461Z,25.12
2018-11-05T21:16:23.914Z,24.92
2018-11-05T21:18:52.422Z,26.07
2018-11-05T21:21:21.060Z,26.00
2018-11-05T21:23:49.664Z,25.95
2018-11-05T21:26:19.047Z,25.27
2018-11-05T21:28:47.498Z,24.90
2018-11-05T21:31:16.020Z,25.23
2018-11-05T21:33:44.469Z,24.82
2018-11-05T21:36:13.000Z,24.02
2018-11-05T21:38:41.438Z,23.73
2018-11-05T21:41:09.911Z,24.30
2018-11-05T21:43:38.591Z,23.90
2018-11-05T21:46:07.186Z,25.88
2018-11-05T21:48:35.685Z,22.87
2018-11-05T21:51:04.307Z,23.47
2018-11-05T21:53:32.939Z,23.85
2018-11-05T21:56:01.518Z,22.60
2018-11-05T21:58:29.950Z,24.43
2018-11-05T22:00:58.406Z,22.05
2018-11-05T22:03:26.957Z,24.67
2018-11-05T22:05:55.563Z,22.48
2018-11-05T22:08:24.036Z,24.15
2018-11-05T22:10:52.485Z,23.10
2018-11-05T22:13:20.993Z,23.40
2018-11-05T22:15:49.415Z,22.42
2018-11-05T22:18:18.449Z,21.50
2018-11-05T22:20:47.038Z,21.85
2018-11-05T22:23:15.678Z,21.48
2018-11-05T22:25:44.205Z,21.60
2018-11-05T22:28:12.655Z,22.77
2018-11-05T22:30:41.227Z,22.37
2018-11-05T22:33:09.615Z,23.25
